• Join FlightAware (Why Join?)
  • Login
  • US Flag 
04:04AM EST


 

Airport Tracker/Info


-or-


 

Live Flight TrackerFlight Track Log ✈ EJA831 ✈ 15-Aug-2013 ✈ KMSO - KSMF

Flight Track Log - Related Links

Times and Time Zones

All times are in EDT time to prevent confusion due to time zone crossing. See the EJA831 flight status page for this flight to view local times or setup timezone preferences in your user account.

Time Position Orientation Groundspeed Altitude Reporting Facility
EDT Latitude Longitude Course Direction KTS MPH feet Rate Location/Type
12:15AM 46.9644 -114.1775 310° West 213 245 6,600  Level Salt Lake Center
12:16AM 46.9858 -114.2708 289° West 252 290 9,900 2,902 Climbing Salt Lake Center
12:17AM 46.9203 -114.3228 208° Southwest 277 319 12,500 2,803 Climbing Salt Lake Center
12:18AM 46.8486 -114.3658 202° Southwest 280 322 15,600 3,220 Climbing Salt Lake Center
12:19AM 46.7697 -114.4111 201° Southwest 285 328 19,100 2,439 Climbing Salt Lake Center
12:20AM 46.6967 -114.4542 202° Southwest 293 337 20,600 1,475 Climbing Salt Lake Center
12:21AM 46.6119 -114.5033 202° Southwest 326 375 22,100 1,574 Climbing Salt Lake Center
12:22AM 46.5247 -114.5533 202° Southwest 336 387 23,800 1,525 Climbing Salt Lake Center
12:23AM 46.4369 -114.6114 205° Southwest 347 399 25,200 1,328 Climbing Salt Lake Center
12:24AM 46.3500 -114.6825 209° Southwest 358 412 26,500 1,289 Climbing Salt Lake Center
12:25AM 46.2458 -114.7708 210° Southwest 361 415 28,100 1,200 Climbing Salt Lake Center
12:26AM 46.1567 -114.8453 210° Southwest 369 425 29,200 1,317 Climbing Salt Lake Center
12:27AM 46.0528 -114.9306 210° Southwest 371 427 30,800 1,366 Climbing Salt Lake Center
12:28AM 45.9672 -115.0006 210° Southwest 369 425 32,000 1,377 Climbing Salt Lake Center
12:29AM 45.8658 -115.0839 210° Southwest 374 430 33,600 984 Climbing Salt Lake Center
12:30AM 45.7786 -115.1542 209° Southwest 376 433 34,000 195 Climbing Salt Lake Center
12:32AM 45.6850 -115.2267 208° Southwest 394 453 34,000  Level Salt Lake Center
12:33AM 45.5750 -115.3192 210° Southwest 408 470 34,000  Level Salt Lake Center
12:34AM 45.4786 -115.3936 208° Southwest 410 472 34,000  Level Salt Lake Center
12:35AM 45.3844 -115.4711 210° Southwest 410 472 34,000  Level Salt Lake Center
12:36AM 45.2725 -115.5592 209° Southwest 411 473 34,000  Level Salt Lake Center
12:37AM 45.1775 -115.6353 209° Southwest 410 472 34,000  Level Seattle Center
12:38AM 45.0658 -115.7231 209° Southwest 412 474 34,000  Level Salt Lake Center
12:39AM 44.9700 -115.7992 209° Southwest 415 478 34,000 49 Level Salt Lake Center
12:40AM 44.8739 -115.8750 209° Southwest 414 476 34,100 443 Climbing Salt Lake Center
12:41AM 44.7628 -115.9608 209° Southwest 409 471 34,900 732 Climbing Salt Lake Center
12:42AM 44.6692 -116.0339 209° Southwest 404 465 35,600 537 Climbing Salt Lake Center
12:43AM 44.5617 -116.1189 209° Southwest 401 461 36,000 197 Climbing Salt Lake Center
12:44AM 44.4556 -116.1975 208° Southwest 416 479 36,000  Level Salt Lake Center
12:45AM 44.3514 -116.2781 209° Southwest 429 494 36,000  Level Salt Lake Center
12:46AM 44.2586 -116.3481 208° Southwest 410 472 36,000  Level Salt Lake Center
12:47AM 44.1531 -116.4283 209° Southwest 392 451 36,000  Level Salt Lake Center
12:48AM 44.0628 -116.4967 209° Southwest 387 445 36,000  Level Salt Lake Center
12:49AM 43.9739 -116.5636 208° Southwest 382 440 36,000  Level Salt Lake Center
12:50AM 43.8708 -116.6414 209° Southwest 377 434 36,000  Level Salt Lake Center
12:51AM 43.7822 -116.7078 208° Southwest 378 435 36,000  Level Salt Lake Center
12:52AM 43.6939 -116.7739 208° Southwest 377 434 36,000  Level Salt Lake Center
12:53AM 43.5894 -116.8508 208° Southwest 381 438 36,000  Level Salt Lake Center
12:54AM 43.5011 -116.9167 208° Southwest 377 434 36,000  Level Salt Lake Center
12:55AM 43.3961 -116.9944 208° Southwest 382 440 36,000  Level Salt Lake Center
12:56AM 43.3067 -117.0608 208° Southwest 381 438 36,000  Level Salt Lake Center
12:57AM 43.2164 -117.1278 208° Southwest 384 442 36,000  Level Salt Lake Center
12:58AM 43.1111 -117.2047 208° Southwest 383 441 36,000  Level Salt Lake Center
12:59AM 43.0208 -117.2694 208° Southwest 383 441 36,000  Level Salt Lake Center
01:00AM 42.9308 -117.3347 208° Southwest 383 441 36,000  Level Salt Lake Center
01:01AM 42.8256 -117.4114 208° Southwest 383 441 36,000  Level Salt Lake Center
01:02AM 42.7350 -117.4761 208° Southwest 383 441 36,000  Level Salt Lake Center
01:03AM 42.6306 -117.5511 208° Southwest 379 436 36,000  Level Salt Lake Center
01:04AM 42.5394 -117.6158 208° Southwest 387 445 36,000  Level Salt Lake Center
01:05AM 42.4503 -117.6792 208° Southwest 380 437 36,000  Level Salt Lake Center
01:06AM 42.3472 -117.7539 208° Southwest 377 434 36,000  Level Salt Lake Center
01:07AM 42.2594 -117.8181 208° Southwest 374 430 36,000  Level Salt Lake Center
01:08AM 42.1667 -117.8831 207° Southwest 372 428 36,000  Level Salt Lake Center
01:09AM 42.0781 -117.9458 208° Southwest 374 430 36,000  Level Salt Lake Center
01:10AM 41.9761 -118.0153 207° Southwest 369 425 36,000  Level Salt Lake Center
01:11AM 41.8892 -118.0800 209° Southwest 372 428 36,000  Level Salt Lake Center
01:12AM 41.8014 -118.1389 207° Southwest 370 426 36,000  Level Salt Lake Center
01:13AM 41.7000 -118.2097 208° Southwest 368 423 36,000  Level Salt Lake Center
01:14AM 41.6133 -118.2689 207° Southwest 366 421 36,000  Level Salt Lake Center
01:15AM 41.5128 -118.3378 207° Southwest 363 418 36,000  Level Salt Lake Center
01:16AM 41.4272 -118.3981 208° Southwest 363 418 36,000  Level Salt Lake Center
01:17AM 41.3411 -118.4556 207° Southwest 362 417 36,000  Level Salt Lake Center
01:18AM 41.2342 -118.5278 207° Southwest 379 436 36,000  Level Salt Lake Center
01:19AM 41.1436 -118.5897 207° Southwest 383 441 36,000  Level Salt Lake Center
01:20AM 41.0539 -118.6506 207° Southwest 380 437 36,000  Level Salt Lake Center
01:21AM 40.9508 -118.7219 208° Southwest 377 434 36,000  Level Salt Lake Center
01:22AM 40.8622 -118.7803 206° Southwest 373 429 36,000  Level Salt Lake Center
01:23AM 40.7725 -118.8400 207° Southwest 375 432 36,000  Level Salt Lake Center
01:24AM 40.6708 -118.9083 207° Southwest 371 427 36,000  Level Salt Lake Center
01:25AM 40.5822 -118.9667 207° Southwest 371 427 36,000  Level Salt Lake Center
01:26AM 40.4983 -119.0225 207° Southwest 367 422 36,000  Level Salt Lake Center
01:27AM 40.4075 -119.0833 207° Southwest 366 421 36,000  Level Salt Lake Center
01:28AM 40.2981 -119.1572 207° Southwest 369 425 36,000  Level Salt Lake Center
01:30AM 40.2081 -119.2153 206° Southwest 363 418 36,000 -148 Level Salt Lake Center
01:31AM 40.1167 -119.2761 207° Southwest 367 422 35,700 -934 Descending Salt Lake Center
01:32AM 40.0228 -119.3364 206° Southwest 376 433 34,100 -1,537 Descending Salt Lake Center
01:33AM 39.9311 -119.3967 207° Southwest 372 428 32,600 -1,488 Descending Salt Lake Center
01:34AM 39.8369 -119.4569 206° Southwest 377 434 31,100 -1,435 Descending Salt Lake Center
01:35AM 39.7214 -119.5383 208° Southwest 395 455 29,300 -1,435 Descending Oakland Center
01:36AM 39.6492 -119.6483 230° Southwest 405 466 27,800 -1,623 Descending Oakland Center
01:37AM 39.5794 -119.7964 239° Southwest 401 461 26,000 -1,623 Descending Oakland Center
01:38AM 39.5219 -119.9153 238° Southwest 393 452 24,500 -1,488 Descending Oakland Center
01:39AM 39.4639 -120.0342 238° Southwest 392 451 23,000 -1,388 Descending Oakland Center
01:40AM 39.4178 -120.1328 239° Southwest 384 442 21,700 -1,525 Descending Oakland Center
01:41AM 39.3511 -120.2686 238° Southwest 374 430 19,900 -1,869 Descending Oakland Center
01:42AM 39.2978 -120.3806 238° Southwest 370 426 17,900 -1,934 Descending Oakland Center
01:43AM 39.2436 -120.4894 237° Southwest 364 419 16,000 -942 Descending Oakland Center
01:44AM 39.1900 -120.5989 238° Southwest 362 417 16,000  Level Oakland Center
01:45AM 39.1372 -120.7078 238° Southwest 361 415 16,000 -836 Level Oakland Center
01:46AM 39.0842 -120.8133 237° Southwest 355 409 14,300 -2,083 Descending Oakland Center
01:47AM 39.0333 -120.9167 238° Southwest 348 400 11,800 -2,231 Descending Oakland Center
01:48AM 38.9906 -121.0128 240° Southwest 326 375 9,800 -1,869 Descending Oakland Center
01:49AM 38.9658 -121.1075 251° West 294 338 8,000 -1,884 Descending Oakland Center
01:50AM 38.9333 -121.2167 249° West 270 311 6,000 -1,850 Descending Northern Cal TRACON
01:51AM 38.9167 -121.3000 256° West 271 312 4,300 -1,450 Descending Northern Cal TRACON
01:52AM 38.8833 -121.3833 243° Southwest 243 280 3,100 -600 Descending Northern Cal TRACON
01:53AM 38.8833 -121.4667 270° West 223 257 3,100 -500 Level Northern Cal TRACON
01:54AM 38.8667 -121.5167 247° West 187 215 2,100 -500 Descending Northern Cal TRACON
01:55AM 38.8333 -121.5667 229° Southwest 185 213 2,100 -100 Level Northern Cal TRACON
01:56AM 38.8000 -121.6000 218° Southwest 140 161 1,900 -400 Descending Northern Cal TRACON
01:57AM 38.7667 -121.6000 180° South 121 139 1,300 -619 Descending Northern Cal TRACON
01:58AM 38.7333 -121.6000 180° South 104 120 600 -550 Descending Northern Cal TRACON
01:59AM 38.7167 -121.6000 180° South 104 120 200 -444 Descending Northern Cal TRACON
02:01AM 38.6954 -121.5908 218° Southwest  Level Estimated
02:08AM 38.6954 -121.5908 218° Southwest  Level Estimated